sensor_id;sensor_type;location;lat;lon;timestamp;pressure;altitude;pressure_sealevel;temperature;humidity
41596;BME280;27283;52.504;13.358;2022-12-18T00:02:20;102887.34;;;-3.63;75.87
41596;BME280;27283;52.504;13.358;2022-12-18T00:04:51;102890.75;;;-3.58;75.35
41596;BME280;27283;52.504;13.358;2022-12-18T00:07:22;102889.41;;;-3.26;74.78
41596;BME280;27283;52.504;13.358;2022-12-18T00:09:55;102906.34;;;-3.43;74.12
41596;BME280;27283;52.504;13.358;2022-12-18T00:12:28;102904.91;;;-3.67;75.24
41596;BME280;27283;52.504;13.358;2022-12-18T00:14:59;102904.97;;;-3.73;75.53
41596;BME280;27283;52.504;13.358;2022-12-18T00:17:31;102906.75;;;-3.74;75.67
41596;BME280;27283;52.504;13.358;2022-12-18T00:20:04;102903.44;;;-3.86;75.88
41596;BME280;27283;52.504;13.358;2022-12-18T00:22:35;102897.09;;;-4.45;77.23
41596;BME280;27283;52.504;13.358;2022-12-18T00:25:07;102902.94;;;-4.19;77.25
41596;BME280;27283;52.504;13.358;2022-12-18T00:27:41;102900.63;;;-4.50;77.95
41596;BME280;27283;52.504;13.358;2022-12-18T00:30:12;102899.94;;;-3.90;76.13
41596;BME280;27283;52.504;13.358;2022-12-18T00:32:43;102901.09;;;-4.11;77.00
41596;BME280;27283;52.504;13.358;2022-12-18T00:35:17;102902.84;;;-4.10;77.04
41596;BME280;27283;52.504;13.358;2022-12-18T00:37:50;102893.81;;;-3.87;76.66
41596;BME280;27283;52.504;13.358;2022-12-18T00:40:22;102894.31;;;-3.59;76.02
41596;BME280;27283;52.504;13.358;2022-12-18T00:42:56;102889.03;;;-3.59;75.62
41596;BME280;27283;52.504;13.358;2022-12-18T00:45:27;102890.66;;;-3.52;75.31
41596;BME280;27283;52.504;13.358;2022-12-18T00:48:07;102888.84;;;-4.12;76.69
41596;BME280;27283;52.504;13.358;2022-12-18T00:50:41;102895.97;;;-4.23;77.16
41596;BME280;27283;52.504;13.358;2022-12-18T00:53:12;102887.25;;;-4.25;77.11
41596;BME280;27283;52.504;13.358;2022-12-18T00:55:45;102893.25;;;-4.16;76.73
41596;BME280;27283;52.504;13.358;2022-12-18T00:58:19;102888.22;;;-4.34;76.56
41596;BME280;27283;52.504;13.358;2022-12-18T01:00:50;102877.78;;;-4.39;77.43
41596;BME280;27283;52.504;13.358;2022-12-18T01:03:22;102884.53;;;-4.18;76.55
41596;BME280;27283;52.504;13.358;2022-12-18T01:05:53;102895.56;;;-3.91;76.24
41596;BME280;27283;52.504;13.358;2022-12-18T01:08:25;102896.00;;;-4.25;76.28
41596;BME280;27283;52.504;13.358;2022-12-18T01:10:56;102897.59;;;-4.10;76.46
41596;BME280;27283;52.504;13.358;2022-12-18T01:13:30;102901.75;;;-3.92;75.87
41596;BME280;27283;52.504;13.358;2022-12-18T01:16:02;102898.88;;;-4.48;76.91
41596;BME280;27283;52.504;13.358;2022-12-18T01:18:33;102906.88;;;-4.62;78.14
41596;BME280;27283;52.504;13.358;2022-12-18T01:21:06;102912.09;;;-4.56;78.43
41596;BME280;27283;52.504;13.358;2022-12-18T01:23:37;102911.09;;;-4.47;77.91
41596;BME280;27283;52.504;13.358;2022-12-18T01:26:12;102922.16;;;-4.14;76.27
41596;BME280;27283;52.504;13.358;2022-12-18T01:28:47;102917.00;;;-4.25;76.68
41596;BME280;27283;52.504;13.358;2022-12-18T01:31:21;102923.25;;;-4.35;76.75
41596;BME280;27283;52.504;13.358;2022-12-18T01:33:54;102918.88;;;-4.35;77.43
41596;BME280;27283;52.504;13.358;2022-12-18T01:36:28;102917.66;;;-4.03;76.46
41596;BME280;27283;52.504;13.358;2022-12-18T01:39:00;102920.44;;;-4.18;76.16
41596;BME280;27283;52.504;13.358;2022-12-18T01:41:34;102917.81;;;-4.18;76.76
41596;BME280;27283;52.504;13.358;2022-12-18T01:47:44;102929.56;;;-3.76;75.27
41596;BME280;27283;52.504;13.358;2022-12-18T01:50:18;102920.66;;;-3.62;74.41
41596;BME280;27283;52.504;13.358;2022-12-18T01:52:53;102932.91;;;-3.63;74.13
41596;BME280;27283;52.504;13.358;2022-12-18T01:55:28;102929.84;;;-4.00;74.80
41596;BME280;27283;52.504;13.358;2022-12-18T01:58:01;102934.59;;;-3.57;73.90
41596;BME280;27283;52.504;13.358;2022-12-18T02:00:33;102935.50;;;-3.61;73.84
41596;BME280;27283;52.504;13.358;2022-12-18T02:03:08;102928.91;;;-3.93;74.31
41596;BME280;27283;52.504;13.358;2022-12-18T02:05:44;102928.84;;;-3.88;74.40
41596;BME280;27283;52.504;13.358;2022-12-18T02:08:21;102925.47;;;-3.98;74.83
41596;BME280;27283;52.504;13.358;2022-12-18T02:11:01;102927.09;;;-3.88;74.74
41596;BME280;27283;52.504;13.358;2022-12-18T02:13:43;102934.81;;;-3.74;74.16
41596;BME280;27283;52.504;13.358;2022-12-18T02:16:23;102934.22;;;-3.98;74.89
41596;BME280;27283;52.504;13.358;2022-12-18T02:19:01;102937.38;;;-3.69;73.96
41596;BME280;27283;52.504;13.358;2022-12-18T02:21:45;102935.88;;;-3.89;74.45
41596;BME280;27283;52.504;13.358;2022-12-18T02:24:28;102937.53;;;-3.82;74.55
41596;BME280;27283;52.504;13.358;2022-12-18T02:27:04;102929.75;;;-3.88;74.58
41596;BME280;27283;52.504;13.358;2022-12-18T02:29:40;102938.50;;;-3.89;74.99
41596;BME280;27283;52.504;13.358;2022-12-18T02:32:25;102941.38;;;-4.09;75.63
41596;BME280;27283;52.504;13.358;2022-12-18T02:34:58;102941.41;;;-4.14;75.70
41596;BME280;27283;52.504;13.358;2022-12-18T02:37:31;102948.25;;;-3.99;75.20
41596;BME280;27283;52.504;13.358;2022-12-18T02:40:08;102958.63;;;-3.86;74.78
41596;BME280;27283;52.504;13.358;2022-12-18T02:42:42;102956.38;;;-4.20;75.33
41596;BME280;27283;52.504;13.358;2022-12-18T02:45:14;102957.41;;;-4.37;75.99
41596;BME280;27283;52.504;13.358;2022-12-18T02:47:47;102957.31;;;-4.28;75.61
41596;BME280;27283;52.504;13.358;2022-12-18T02:50:23;102955.63;;;-4.33;75.49
41596;BME280;27283;52.504;13.358;2022-12-18T02:53:04;102961.94;;;-4.51;76.13
41596;BME280;27283;52.504;13.358;2022-12-18T02:55:50;102957.63;;;-4.58;76.93
41596;BME280;27283;52.504;13.358;2022-12-18T02:58:33;102956.84;;;-4.71;77.16
41596;BME280;27283;52.504;13.358;2022-12-18T03:01:10;102953.97;;;-4.40;75.94
41596;BME280;27283;52.504;13.358;2022-12-18T03:03:50;102954.88;;;-4.48;75.95
41596;BME280;27283;52.504;13.358;2022-12-18T03:06:26;102951.28;;;-4.36;75.06
41596;BME280;27283;52.504;13.358;2022-12-18T03:09:02;102950.25;;;-4.21;75.19
41596;BME280;27283;52.504;13.358;2022-12-18T03:11:41;102953.75;;;-4.22;75.14
41596;BME280;27283;52.504;13.358;2022-12-18T03:14:32;102960.66;;;-4.10;73.76
41596;BME280;27283;52.504;13.358;2022-12-18T03:17:07;102967.47;;;-3.94;73.41
41596;BME280;27283;52.504;13.358;2022-12-18T03:19:43;102957.13;;;-4.07;73.99
41596;BME280;27283;52.504;13.358;2022-12-18T03:22:18;102958.09;;;-4.16;74.27
41596;BME280;27283;52.504;13.358;2022-12-18T03:24:51;102952.84;;;-4.18;74.48
41596;BME280;27283;52.504;13.358;2022-12-18T03:27:26;102957.88;;;-3.99;73.68
41596;BME280;27283;52.504;13.358;2022-12-18T03:30:05;102961.50;;;-4.10;74.16
41596;BME280;27283;52.504;13.358;2022-12-18T03:32:42;102959.84;;;-4.18;74.31
41596;BME280;27283;52.504;13.358;2022-12-18T03:35:20;102964.13;;;-4.08;74.23
41596;BME280;27283;52.504;13.358;2022-12-18T03:37:53;102960.91;;;-4.36;74.98
41596;BME280;27283;52.504;13.358;2022-12-18T03:40:29;102962.13;;;-4.74;76.42
41596;BME280;27283;52.504;13.358;2022-12-18T03:43:07;102951.53;;;-4.64;76.15
41596;BME280;27283;52.504;13.358;2022-12-18T03:45:50;102955.84;;;-4.58;76.16
41596;BME280;27283;52.504;13.358;2022-12-18T03:48:29;102961.06;;;-4.55;75.39
41596;BME280;27283;52.504;13.358;2022-12-18T03:51:06;102960.38;;;-4.72;75.96
41596;BME280;27283;52.504;13.358;2022-12-18T03:53:44;102959.28;;;-4.48;75.72
41596;BME280;27283;52.504;13.358;2022-12-18T03:56:21;102961.91;;;-4.48;75.31
41596;BME280;27283;52.504;13.358;2022-12-18T03:58:55;102962.03;;;-4.65;75.94
41596;BME280;27283;52.504;13.358;2022-12-18T04:01:33;102967.47;;;-4.85;76.75
41596;BME280;27283;52.504;13.358;2022-12-18T04:04:08;102963.16;;;-4.94;76.99
41596;BME280;27283;52.504;13.358;2022-12-18T04:06:41;102971.88;;;-4.90;77.15
41596;BME280;27283;52.504;13.358;2022-12-18T04:09:15;102970.31;;;-5.16;77.92
41596;BME280;27283;52.504;13.358;2022-12-18T04:11:47;102966.81;;;-5.17;77.79
41596;BME280;27283;52.504;13.358;2022-12-18T04:14:18;102960.56;;;-4.99;77.03
41596;BME280;27283;52.504;13.358;2022-12-18T04:16:52;102976.88;;;-4.59;75.75
41596;BME280;27283;52.504;13.358;2022-12-18T04:19:24;102979.28;;;-4.35;75.09
41596;BME280;27283;52.504;13.358;2022-12-18T04:21:55;102986.28;;;-4.35;74.96
41596;BME280;27283;52.504;13.358;2022-12-18T04:24:26;102984.38;;;-4.18;74.86
41596;BME280;27283;52.504;13.358;2022-12-18T04:26:57;102976.59;;;-4.27;74.23
41596;BME280;27283;52.504;13.358;2022-12-18T04:29:29;102986.47;;;-4.54;74.56
41596;BME280;27283;52.504;13.358;2022-12-18T04:32:04;102991.81;;;-4.66;75.27
41596;BME280;27283;52.504;13.358;2022-12-18T04:34:37;102987.50;;;-4.75;75.67
41596;BME280;27283;52.504;13.358;2022-12-18T04:37:09;102983.72;;;-4.43;74.71
41596;BME280;27283;52.504;13.358;2022-12-18T04:39:40;102990.84;;;-4.59;75.47
41596;BME280;27283;52.504;13.358;2022-12-18T04:42:12;102993.50;;;-4.59;75.82
41596;BME280;27283;52.504;13.358;2022-12-18T04:44:43;102993.25;;;-4.30;74.51
41596;BME280;27283;52.504;13.358;2022-12-18T04:47:18;102997.16;;;-4.82;75.91
41596;BME280;27283;52.504;13.358;2022-12-18T04:49:52;102984.13;;;-4.91;76.18
41596;BME280;27283;52.504;13.358;2022-12-18T04:52:27;102987.69;;;-5.00;76.09
41596;BME280;27283;52.504;13.358;2022-12-18T04:55:03;102990.13;;;-4.75;75.94
41596;BME280;27283;52.504;13.358;2022-12-18T04:57:34;102980.63;;;-4.90;75.82
41596;BME280;27283;52.504;13.358;2022-12-18T05:00:07;102981.28;;;-4.63;75.36
41596;BME280;27283;52.504;13.358;2022-12-18T05:02:41;102992.03;;;-4.95;76.28
41596;BME280;27283;52.504;13.358;2022-12-18T05:05:15;102999.53;;;-4.46;74.81
41596;BME280;27283;52.504;13.358;2022-12-18T05:07:46;103009.81;;;-4.23;73.89
41596;BME280;27283;52.504;13.358;2022-12-18T05:10:18;103004.38;;;-4.04;73.52
41596;BME280;27283;52.504;13.358;2022-12-18T05:12:50;103012.41;;;-4.21;73.73
41596;BME280;27283;52.504;13.358;2022-12-18T05:15:33;103009.16;;;-4.47;74.32
41596;BME280;27283;52.504;13.358;2022-12-18T05:18:08;103008.34;;;-4.56;74.59
41596;BME280;27283;52.504;13.358;2022-12-18T05:20:41;103003.34;;;-4.86;75.81
41596;BME280;27283;52.504;13.358;2022-12-18T05:23:12;103018.00;;;-4.58;75.22
41596;BME280;27283;52.504;13.358;2022-12-18T05:25:51;103022.38;;;-4.54;74.96
41596;BME280;27283;52.504;13.358;2022-12-18T05:28:24;103037.31;;;-4.67;75.16
41596;BME280;27283;52.504;13.358;2022-12-18T05:30:57;103034.53;;;-4.49;74.66
41596;BME280;27283;52.504;13.358;2022-12-18T05:33:34;103035.34;;;-4.37;74.06
41596;BME280;27283;52.504;13.358;2022-12-18T05:36:21;103032.88;;;-4.54;74.90
41596;BME280;27283;52.504;13.358;2022-12-18T05:38:52;103039.88;;;-4.58;75.11
41596;BME280;27283;52.504;13.358;2022-12-18T05:41:24;103036.16;;;-4.32;74.29
41596;BME280;27283;52.504;13.358;2022-12-18T05:43:59;103037.03;;;-4.29;73.79
41596;BME280;27283;52.504;13.358;2022-12-18T05:46:35;103032.22;;;-4.87;75.46
41596;BME280;27283;52.504;13.358;2022-12-18T05:49:10;103033.22;;;-5.10;76.92
41596;BME280;27283;52.504;13.358;2022-12-18T05:51:41;103035.06;;;-5.27;77.75
41596;BME280;27283;52.504;13.358;2022-12-18T05:54:16;103039.28;;;-5.02;76.87
41596;BME280;27283;52.504;13.358;2022-12-18T05:56:47;103040.66;;;-4.43;75.55
41596;BME280;27283;52.504;13.358;2022-12-18T05:59:18;103045.13;;;-4.59;74.75
41596;BME280;27283;52.504;13.358;2022-12-18T06:01:49;103039.59;;;-4.24;74.13
41596;BME280;27283;52.504;13.358;2022-12-18T06:04:23;103040.69;;;-4.47;74.70
41596;BME280;27283;52.504;13.358;2022-12-18T06:06:59;103050.75;;;-4.00;73.41
41596;BME280;27283;52.504;13.358;2022-12-18T06:09:33;103056.22;;;-4.23;73.97
41596;BME280;27283;52.504;13.358;2022-12-18T06:12:05;103058.06;;;-4.30;74.13
41596;BME280;27283;52.504;13.358;2022-12-18T06:14:38;103059.78;;;-4.29;73.98
41596;BME280;27283;52.504;13.358;2022-12-18T06:17:09;103058.59;;;-3.96;73.21
41596;BME280;27283;52.504;13.358;2022-12-18T06:19:44;103065.88;;;-4.22;73.46
41596;BME280;27283;52.504;13.358;2022-12-18T06:22:15;103063.25;;;-4.22;73.49
41596;BME280;27283;52.504;13.358;2022-12-18T06:24:48;103067.78;;;-4.43;74.27
41596;BME280;27283;52.504;13.358;2022-12-18T06:27:20;103066.06;;;-4.50;74.76
41596;BME280;27283;52.504;13.358;2022-12-18T06:29:55;103061.63;;;-4.40;74.75
41596;BME280;27283;52.504;13.358;2022-12-18T06:32:26;103067.13;;;-4.74;75.74
41596;BME280;27283;52.504;13.358;2022-12-18T06:35:01;103073.38;;;-4.97;76.74
41596;BME280;27283;52.504;13.358;2022-12-18T06:37:33;103082.13;;;-4.96;76.64
41596;BME280;27283;52.504;13.358;2022-12-18T06:40:07;103094.47;;;-5.16;77.27
41596;BME280;27283;52.504;13.358;2022-12-18T06:42:40;103093.53;;;-5.01;76.89
41596;BME280;27283;52.504;13.358;2022-12-18T06:45:16;103095.09;;;-4.69;75.97
41596;BME280;27283;52.504;13.358;2022-12-18T06:47:49;103094.09;;;-4.49;74.81
41596;BME280;27283;52.504;13.358;2022-12-18T06:50:24;103097.66;;;-4.61;75.07
41596;BME280;27283;52.504;13.358;2022-12-18T06:52:59;103107.34;;;-4.66;75.24
41596;BME280;27283;52.504;13.358;2022-12-18T06:55:31;103107.38;;;-4.72;75.85
41596;BME280;27283;52.504;13.358;2022-12-18T06:58:05;103116.91;;;-4.57;75.55
41596;BME280;27283;52.504;13.358;2022-12-18T07:00:38;103124.75;;;-4.53;74.70
41596;BME280;27283;52.504;13.358;2022-12-18T07:03:13;103121.34;;;-4.69;74.89
41596;BME280;27283;52.504;13.358;2022-12-18T07:05:50;103105.50;;;-4.58;75.23
41596;BME280;27283;52.504;13.358;2022-12-18T07:08:22;103101.50;;;-5.22;77.54
41596;BME280;27283;52.504;13.358;2022-12-18T07:10:55;103101.44;;;-5.10;77.23
41596;BME280;27283;52.504;13.358;2022-12-18T07:13:27;103104.06;;;-5.13;77.69
41596;BME280;27283;52.504;13.358;2022-12-18T07:16:05;103110.22;;;-5.20;78.45
41596;BME280;27283;52.504;13.358;2022-12-18T07:18:48;103113.66;;;-5.01;77.12
41596;BME280;27283;52.504;13.358;2022-12-18T07:21:28;103109.34;;;-5.16;78.02
41596;BME280;27283;52.504;13.358;2022-12-18T07:24:05;103113.63;;;-4.96;77.88
41596;BME280;27283;52.504;13.358;2022-12-18T07:26:42;103116.28;;;-5.00;78.02
41596;BME280;27283;52.504;13.358;2022-12-18T07:29:13;103109.16;;;-4.81;77.57
41596;BME280;27283;52.504;13.358;2022-12-18T07:31:45;103108.28;;;-4.78;76.65
41596;BME280;27283;52.504;13.358;2022-12-18T07:34:20;103111.78;;;-4.81;77.45
41596;BME280;27283;52.504;13.358;2022-12-18T07:36:55;103117.81;;;-4.61;76.31
41596;BME280;27283;52.504;13.358;2022-12-18T07:39:26;103112.72;;;-4.95;77.24
41596;BME280;27283;52.504;13.358;2022-12-18T07:42:00;103106.59;;;-4.94;77.65
41596;BME280;27283;52.504;13.358;2022-12-18T07:44:58;103119.72;;;-4.90;77.86
41596;BME280;27283;52.504;13.358;2022-12-18T07:47:34;103111.59;;;-4.50;76.81
41596;BME280;27283;52.504;13.358;2022-12-18T07:50:08;103106.53;;;-4.79;77.30
41596;BME280;27283;52.504;13.358;2022-12-18T07:52:44;103109.00;;;-4.59;77.33
41596;BME280;27283;52.504;13.358;2022-12-18T07:55:18;103104.50;;;-4.38;76.69
41596;BME280;27283;52.504;13.358;2022-12-18T07:57:49;103102.06;;;-4.61;77.67
41596;BME280;27283;52.504;13.358;2022-12-18T08:00:28;103101.22;;;-4.73;78.22
41596;BME280;27283;52.504;13.358;2022-12-18T08:03:03;103109.84;;;-4.51;77.41
41596;BME280;27283;52.504;13.358;2022-12-18T08:05:34;103118.50;;;-4.38;77.52
41596;BME280;27283;52.504;13.358;2022-12-18T08:08:09;103116.69;;;-4.28;76.99
41596;BME280;27283;52.504;13.358;2022-12-18T08:10:41;103117.66;;;-4.40;77.52
41596;BME280;27283;52.504;13.358;2022-12-18T08:13:13;103122.88;;;-4.35;76.90
41596;BME280;27283;52.504;13.358;2022-12-18T08:15:45;103112.34;;;-4.32;77.11
41596;BME280;27283;52.504;13.358;2022-12-18T08:18:17;103118.34;;;-4.16;76.05
41596;BME280;27283;52.504;13.358;2022-12-18T08:20:49;103121.75;;;-4.03;75.97
41596;BME280;27283;52.504;13.358;2022-12-18T08:23:24;103126.88;;;-3.89;75.32
41596;BME280;27283;52.504;13.358;2022-12-18T08:25:58;103131.28;;;-3.93;75.34
41596;BME280;27283;52.504;13.358;2022-12-18T08:28:30;103135.16;;;-4.37;76.64
41596;BME280;27283;52.504;13.358;2022-12-18T08:31:03;103136.88;;;-4.32;77.22
41596;BME280;27283;52.504;13.358;2022-12-18T08:33:36;103136.06;;;-4.45;77.32
41596;BME280;27283;52.504;13.358;2022-12-18T08:36:10;103131.63;;;-4.38;77.22
41596;BME280;27283;52.504;13.358;2022-12-18T08:38:43;103140.28;;;-4.20;76.56
41596;BME280;27283;52.504;13.358;2022-12-18T08:41:18;103138.66;;;-4.38;76.63
41596;BME280;27283;52.504;13.358;2022-12-18T08:43:50;103145.41;;;-4.06;76.29
41596;BME280;27283;52.504;13.358;2022-12-18T08:46:40;103149.97;;;-4.29;76.58
41596;BME280;27283;52.504;13.358;2022-12-18T08:49:12;103148.09;;;-4.11;76.02
41596;BME280;27283;52.504;13.358;2022-12-18T08:51:45;103151.47;;;-3.97;75.63
41596;BME280;27283;52.504;13.358;2022-12-18T08:54:20;103152.34;;;-3.96;75.46
41596;BME280;27283;52.504;13.358;2022-12-18T08:56:52;103159.31;;;-3.92;75.08
41596;BME280;27283;52.504;13.358;2022-12-18T08:59:24;103159.50;;;-4.18;76.58
41596;BME280;27283;52.504;13.358;2022-12-18T09:01:56;103158.59;;;-4.11;76.14
41596;BME280;27283;52.504;13.358;2022-12-18T09:04:29;103160.91;;;-3.71;74.87
41596;BME280;27283;52.504;13.358;2022-12-18T09:07:01;103166.38;;;-4.00;74.96
41596;BME280;27283;52.504;13.358;2022-12-18T09:09:35;103175.19;;;-4.03;74.84
41596;BME280;27283;52.504;13.358;2022-12-18T09:12:07;103174.38;;;-4.16;75.15
41596;BME280;27283;52.504;13.358;2022-12-18T09:14:38;103173.47;;;-4.07;75.30
41596;BME280;27283;52.504;13.358;2022-12-18T09:17:11;103169.97;;;-4.07;75.21
41596;BME280;27283;52.504;13.358;2022-12-18T09:19:43;103183.97;;;-4.08;75.01
41596;BME280;27283;52.504;13.358;2022-12-18T09:22:15;103178.63;;;-3.95;75.26
41596;BME280;27283;52.504;13.358;2022-12-18T09:24:51;103185.41;;;-3.70;74.73
41596;BME280;27283;52.504;13.358;2022-12-18T09:27:23;103180.38;;;-3.94;74.53
41596;BME280;27283;52.504;13.358;2022-12-18T09:29:55;103177.72;;;-3.90;74.60
41596;BME280;27283;52.504;13.358;2022-12-18T09:32:27;103180.56;;;-4.21;76.44
41596;BME280;27283;52.504;13.358;2022-12-18T09:34:59;103182.16;;;-4.02;76.10
41596;BME280;27283;52.504;13.358;2022-12-18T09:37:31;103176.75;;;-3.80;75.65
41596;BME280;27283;52.504;13.358;2022-12-18T09:40:12;103171.31;;;-3.60;74.92
41596;BME280;27283;52.504;13.358;2022-12-18T09:42:54;103161.44;;;-3.38;74.19
41596;BME280;27283;52.504;13.358;2022-12-18T09:45:27;103165.88;;;-3.45;73.85
41596;BME280;27283;52.504;13.358;2022-12-18T09:48:02;103165.16;;;-3.59;74.00
41596;BME280;27283;52.504;13.358;2022-12-18T09:50:37;103160.16;;;-3.87;75.69
41596;BME280;27283;52.504;13.358;2022-12-18T09:53:15;103148.19;;;-4.27;77.98
41596;BME280;27283;52.504;13.358;2022-12-18T09:55:52;103146.38;;;-4.17;78.11
41596;BME280;27283;52.504;13.358;2022-12-18T09:58:30;103148.06;;;-4.10;78.48
41596;BME280;27283;52.504;13.358;2022-12-18T10:01:09;103135.72;;;-3.97;77.94
41596;BME280;27283;52.504;13.358;2022-12-18T10:03:42;103116.50;;;-4.05;78.42
41596;BME280;27283;52.504;13.358;2022-12-18T10:06:20;103112.66;;;-3.68;77.41
41596;BME280;27283;52.504;13.358;2022-12-18T10:08:58;103099.81;;;-4.01;78.95
41596;BME280;27283;52.504;13.358;2022-12-18T10:11:40;103110.00;;;-3.68;78.63
41596;BME280;27283;52.504;13.358;2022-12-18T10:14:19;103106.09;;;-3.29;77.28
41596;BME280;27283;52.504;13.358;2022-12-18T10:17:00;103108.50;;;-3.12;76.98
41596;BME280;27283;52.504;13.358;2022-12-18T10:19:39;103107.25;;;-2.83;75.41
41596;BME280;27283;52.504;13.358;2022-12-18T10:22:25;103119.75;;;-3.00;75.82
41596;BME280;27283;52.504;13.358;2022-12-18T10:25:05;103115.44;;;-3.03;75.89
41596;BME280;27283;52.504;13.358;2022-12-18T10:27:41;103117.94;;;-2.94;75.80
41596;BME280;27283;52.504;13.358;2022-12-18T10:30:18;103111.19;;;-3.16;77.09
41596;BME280;27283;52.504;13.358;2022-12-18T10:32:49;103107.38;;;-2.92;76.52
41596;BME280;27283;52.504;13.358;2022-12-18T10:35:24;103106.81;;;-3.17;76.92
41596;BME280;27283;52.504;13.358;2022-12-18T10:38:03;103106.66;;;-3.05;76.27
41596;BME280;27283;52.504;13.358;2022-12-18T10:40:50;103103.28;;;-3.15;76.99
41596;BME280;27283;52.504;13.358;2022-12-18T10:43:26;103105.84;;;-3.10;76.78
41596;BME280;27283;52.504;13.358;2022-12-18T10:46:16;103089.69;;;-2.84;76.20
41596;BME280;27283;52.504;13.358;2022-12-18T10:48:52;103097.06;;;-2.47;75.20
41596;BME280;27283;52.504;13.358;2022-12-18T10:51:28;103084.06;;;-3.20;77.29
41596;BME280;27283;52.504;13.358;2022-12-18T10:54:04;103074.97;;;-2.99;77.53
41596;BME280;27283;52.504;13.358;2022-12-18T10:56:38;103074.06;;;-2.95;77.28
41596;BME280;27283;52.504;13.358;2022-12-18T10:59:16;103072.34;;;-2.99;76.59
41596;BME280;27283;52.504;13.358;2022-12-18T11:01:51;103057.59;;;-3.08;77.16
41596;BME280;27283;52.504;13.358;2022-12-18T11:04:24;103066.75;;;-2.74;76.48
41596;BME280;27283;52.504;13.358;2022-12-18T11:07:01;103057.66;;;-3.12;77.09
41596;BME280;27283;52.504;13.358;2022-12-18T11:09:34;103067.19;;;-3.07;77.38
41596;BME280;27283;52.504;13.358;2022-12-18T11:12:17;103076.09;;;-3.15;77.72
41596;BME280;27283;52.504;13.358;2022-12-18T11:14:54;103062.81;;;-3.06;77.90
41596;BME280;27283;52.504;13.358;2022-12-18T11:17:29;103072.25;;;-2.90;77.41
41596;BME280;27283;52.504;13.358;2022-12-18T11:20:04;103069.91;;;-2.51;76.83
41596;BME280;27283;52.504;13.358;2022-12-18T11:22:38;103066.97;;;-2.88;77.25
41596;BME280;27283;52.504;13.358;2022-12-18T11:25:19;103067.56;;;-2.71;77.79
41596;BME280;27283;52.504;13.358;2022-12-18T11:28:04;103080.63;;;-2.63;77.19
41596;BME280;27283;52.504;13.358;2022-12-18T11:30:38;103075.94;;;-2.42;76.67
41596;BME280;27283;52.504;13.358;2022-12-18T11:33:13;103071.16;;;-2.76;77.60
41596;BME280;27283;52.504;13.358;2022-12-18T11:35:49;103067.75;;;-2.83;77.95
41596;BME280;27283;52.504;13.358;2022-12-18T11:38:29;103057.09;;;-2.74;77.60
41596;BME280;27283;52.504;13.358;2022-12-18T11:41:05;103065.81;;;-2.70;77.25
41596;BME280;27283;52.504;13.358;2022-12-18T11:43:47;103059.13;;;-2.35;76.53
41596;BME280;27283;52.504;13.358;2022-12-18T11:46:32;103074.22;;;-2.46;76.74
41596;BME280;27283;52.504;13.358;2022-12-18T11:49:13;103086.06;;;-2.75;76.92
41596;BME280;27283;52.504;13.358;2022-12-18T11:51:51;103084.41;;;-2.82;77.77
41596;BME280;27283;52.504;13.358;2022-12-18T11:54:24;103081.78;;;-2.82;78.21
41596;BME280;27283;52.504;13.358;2022-12-18T11:57:01;103091.38;;;-2.77;78.23
41596;BME280;27283;52.504;13.358;2022-12-18T11:59:44;103101.03;;;-2.77;77.63
41596;BME280;27283;52.504;13.358;2022-12-18T12:02:33;103111.94;;;-2.43;77.18
41596;BME280;27283;52.504;13.358;2022-12-18T12:05:21;103106.13;;;-2.65;77.38
41596;BME280;27283;52.504;13.358;2022-12-18T12:08:01;103103.28;;;-2.51;76.74
41596;BME280;27283;52.504;13.358;2022-12-18T12:10:49;103096.38;;;-2.60;77.02
41596;BME280;27283;52.504;13.358;2022-12-18T12:13:37;103101.53;;;-2.51;77.34
41596;BME280;27283;52.504;13.358;2022-12-18T12:16:17;103105.28;;;-2.67;77.31
41596;BME280;27283;52.504;13.358;2022-12-18T12:19:03;103101.03;;;-2.77;77.43
41596;BME280;27283;52.504;13.358;2022-12-18T12:21:42;103104.50;;;-2.18;75.70
41596;BME280;27283;52.504;13.358;2022-12-18T12:24:27;103095.88;;;-2.27;75.61
41596;BME280;27283;52.504;13.358;2022-12-18T12:27:10;103110.97;;;-2.37;76.12
41596;BME280;27283;52.504;13.358;2022-12-18T12:29:53;103111.13;;;-2.48;76.66
41596;BME280;27283;52.504;13.358;2022-12-18T12:32:38;103114.25;;;-2.23;75.47
41596;BME280;27283;52.504;13.358;2022-12-18T12:35:27;103122.31;;;-1.79;74.16
41596;BME280;27283;52.504;13.358;2022-12-18T12:38:08;103122.09;;;-1.67;73.27
41596;BME280;27283;52.504;13.358;2022-12-18T12:40:46;103125.59;;;-1.66;73.47
41596;BME280;27283;52.504;13.358;2022-12-18T12:43:35;103121.63;;;-1.90;74.25
41596;BME280;27283;52.504;13.358;2022-12-18T12:46:17;103117.63;;;-2.15;74.72
41596;BME280;27283;52.504;13.358;2022-12-18T12:48:56;103116.38;;;-1.92;74.35
41596;BME280;27283;52.504;13.358;2022-12-18T12:51:33;103111.09;;;-1.92;74.44
41596;BME280;27283;52.504;13.358;2022-12-18T12:54:23;103095.63;;;-2.12;74.83
41596;BME280;27283;52.504;13.358;2022-12-18T12:56:59;103082.63;;;-2.23;74.83
41596;BME280;27283;52.504;13.358;2022-12-18T12:59:41;103071.25;;;-2.25;74.71
41596;BME280;27283;52.504;13.358;2022-12-18T13:02:23;103062.84;;;-2.48;75.55
41596;BME280;27283;52.504;13.358;2022-12-18T13:05:06;103064.66;;;-2.52;76.32
41596;BME280;27283;52.504;13.358;2022-12-18T13:07:49;103057.34;;;-2.35;76.06
41596;BME280;27283;52.504;13.358;2022-12-18T13:10:32;103056.47;;;-2.34;75.98
41596;BME280;27283;52.504;13.358;2022-12-18T13:13:05;103054.59;;;-2.28;76.31
41596;BME280;27283;52.504;13.358;2022-12-18T13:15:39;103072.31;;;-2.35;76.01
41596;BME280;27283;52.504;13.358;2022-12-18T13:18:19;103072.75;;;-2.64;76.91
41596;BME280;27283;52.504;13.358;2022-12-18T13:21:01;103072.28;;;-2.34;76.67
41596;BME280;27283;52.504;13.358;2022-12-18T13:23:36;103077.38;;;-2.23;75.87
41596;BME280;27283;52.504;13.358;2022-12-18T13:26:31;103067.94;;;-2.38;77.01
41596;BME280;27283;52.504;13.358;2022-12-18T13:29:04;103061.84;;;-2.40;76.79